sensor_id;sensor_type;location;lat;lon;timestamp;P1;durP1;ratioP1;P2;durP2;ratioP2
69981;SDS011;57319;56.274;43.980;2022-12-18T00:01:20;31.30;;;13.95;;
69981;SDS011;57319;56.274;43.980;2022-12-18T00:03:48;30.08;;;14.93;;
69981;SDS011;57319;56.274;43.980;2022-12-18T00:06:14;33.10;;;14.32;;
69981;SDS011;57319;56.274;43.980;2022-12-18T00:08:41;29.40;;;13.82;;
69981;SDS011;57319;56.274;43.980;2022-12-18T00:11:08;35.13;;;14.52;;
69981;SDS011;57319;56.274;43.980;2022-12-18T00:13:36;29.65;;;14.65;;
69981;SDS011;57319;56.274;43.980;2022-12-18T00:16:02;30.17;;;14.52;;
69981;SDS011;57319;56.274;43.980;2022-12-18T00:18:30;37.58;;;15.00;;
69981;SDS011;57319;56.274;43.980;2022-12-18T00:20:58;29.08;;;15.07;;
69981;SDS011;57319;56.274;43.980;2022-12-18T00:23:25;38.00;;;15.32;;
69981;SDS011;57319;56.274;43.980;2022-12-18T00:25:51;29.23;;;13.30;;
69981;SDS011;57319;56.274;43.980;2022-12-18T00:28:16;34.00;;;13.82;;
69981;SDS011;57319;56.274;43.980;2022-12-18T00:30:42;30.30;;;13.68;;
69981;SDS011;57319;56.274;43.980;2022-12-18T00:33:08;28.75;;;14.75;;
69981;SDS011;57319;56.274;43.980;2022-12-18T00:35:33;35.25;;;15.20;;
69981;SDS011;57319;56.274;43.980;2022-12-18T00:37:59;34.17;;;13.38;;
69981;SDS011;57319;56.274;43.980;2022-12-18T00:40:24;29.85;;;14.38;;
69981;SDS011;57319;56.274;43.980;2022-12-18T00:42:50;34.55;;;13.70;;
69981;SDS011;57319;56.274;43.980;2022-12-18T00:45:23;31.17;;;14.40;;
69981;SDS011;57319;56.274;43.980;2022-12-18T00:47:52;20.17;;;9.43;;
69981;SDS011;57319;56.274;43.980;2022-12-18T00:50:19;22.90;;;10.95;;
69981;SDS011;57319;56.274;43.980;2022-12-18T00:52:45;34.90;;;14.10;;
69981;SDS011;57319;56.274;43.980;2022-12-18T00:55:11;27.52;;;12.75;;
69981;SDS011;57319;56.274;43.980;2022-12-18T00:57:38;29.02;;;12.73;;
69981;SDS011;57319;56.274;43.980;2022-12-18T01:00:05;30.80;;;12.18;;
69981;SDS011;57319;56.274;43.980;2022-12-18T01:02:32;30.38;;;12.10;;
69981;SDS011;57319;56.274;43.980;2022-12-18T01:04:58;28.38;;;12.02;;
69981;SDS011;57319;56.274;43.980;2022-12-18T01:07:23;21.27;;;11.77;;
69981;SDS011;57319;56.274;43.980;2022-12-18T01:09:49;28.38;;;13.15;;
69981;SDS011;57319;56.274;43.980;2022-12-18T01:12:14;28.65;;;13.02;;
69981;SDS011;57319;56.274;43.980;2022-12-18T01:14:40;30.65;;;12.50;;
69981;SDS011;57319;56.274;43.980;2022-12-18T01:17:06;24.80;;;12.60;;
69981;SDS011;57319;56.274;43.980;2022-12-18T01:19:32;28.55;;;12.27;;
69981;SDS011;57319;56.274;43.980;2022-12-18T01:21:58;21.70;;;11.07;;
69981;SDS011;57319;56.274;43.980;2022-12-18T01:24:24;28.88;;;11.88;;
69981;SDS011;57319;56.274;43.980;2022-12-18T01:26:50;18.60;;;11.02;;
69981;SDS011;57319;56.274;43.980;2022-12-18T01:29:15;23.60;;;11.50;;
69981;SDS011;57319;56.274;43.980;2022-12-18T01:31:41;27.75;;;12.77;;
69981;SDS011;57319;56.274;43.980;2022-12-18T01:34:07;27.23;;;11.95;;
69981;SDS011;57319;56.274;43.980;2022-12-18T01:36:34;22.30;;;11.38;;
69981;SDS011;57319;56.274;43.980;2022-12-18T01:39:02;35.90;;;13.77;;
69981;SDS011;57319;56.274;43.980;2022-12-18T01:41:31;27.23;;;11.63;;
69981;SDS011;57319;56.274;43.980;2022-12-18T01:48:06;26.48;;;11.65;;
69981;SDS011;57319;56.274;43.980;2022-12-18T01:52:50;28.35;;;12.27;;
69981;SDS011;57319;56.274;43.980;2022-12-18T01:55:19;16.05;;;9.48;;
69981;SDS011;57319;56.274;43.980;2022-12-18T01:57:47;19.10;;;10.27;;
69981;SDS011;57319;56.274;43.980;2022-12-18T02:00:18;19.05;;;11.05;;
69981;SDS011;57319;56.274;43.980;2022-12-18T02:02:46;23.77;;;12.00;;
69981;SDS011;57319;56.274;43.980;2022-12-18T02:05:13;19.55;;;10.85;;
69981;SDS011;57319;56.274;43.980;2022-12-18T02:10:48;18.70;;;9.90;;
69981;SDS011;57319;56.274;43.980;2022-12-18T02:13:30;19.60;;;10.98;;
69981;SDS011;57319;56.274;43.980;2022-12-18T02:16:29;17.13;;;10.45;;
69981;SDS011;57319;56.274;43.980;2022-12-18T02:19:00;16.48;;;9.50;;
69981;SDS011;57319;56.274;43.980;2022-12-18T02:21:34;20.67;;;10.68;;
69981;SDS011;57319;56.274;43.980;2022-12-18T02:24:18;14.50;;;8.80;;
69981;SDS011;57319;56.274;43.980;2022-12-18T02:26:59;21.00;;;9.52;;
69981;SDS011;57319;56.274;43.980;2022-12-18T02:29:41;19.48;;;10.05;;
69981;SDS011;57319;56.274;43.980;2022-12-18T02:32:35;19.95;;;10.02;;
69981;SDS011;57319;56.274;43.980;2022-12-18T02:35:10;19.48;;;10.48;;
69981;SDS011;57319;56.274;43.980;2022-12-18T02:37:40;24.70;;;11.13;;
69981;SDS011;57319;56.274;43.980;2022-12-18T02:40:08;17.98;;;9.77;;
69981;SDS011;57319;56.274;43.980;2022-12-18T02:42:36;18.00;;;9.70;;
69981;SDS011;57319;56.274;43.980;2022-12-18T02:45:01;17.80;;;9.98;;
69981;SDS011;57319;56.274;43.980;2022-12-18T02:47:32;15.43;;;9.38;;
69981;SDS011;57319;56.274;43.980;2022-12-18T02:50:19;15.45;;;8.88;;
69981;SDS011;57319;56.274;43.980;2022-12-18T02:53:15;15.68;;;8.00;;
69981;SDS011;57319;56.274;43.980;2022-12-18T03:01:24;18.95;;;9.25;;
69981;SDS011;57319;56.274;43.980;2022-12-18T03:04:00;13.15;;;7.63;;
69981;SDS011;57319;56.274;43.980;2022-12-18T03:06:37;12.10;;;6.80;;
69981;SDS011;57319;56.274;43.980;2022-12-18T03:09:10;18.55;;;8.73;;
69981;SDS011;57319;56.274;43.980;2022-12-18T03:11:53;17.00;;;7.68;;
69981;SDS011;57319;56.274;43.980;2022-12-18T03:14:41;10.90;;;7.03;;
69981;SDS011;57319;56.274;43.980;2022-12-18T03:17:12;16.45;;;7.35;;
69981;SDS011;57319;56.274;43.980;2022-12-18T03:19:41;13.60;;;7.32;;
69981;SDS011;57319;56.274;43.980;2022-12-18T03:22:11;15.75;;;8.15;;
69981;SDS011;57319;56.274;43.980;2022-12-18T03:24:38;15.43;;;8.68;;
69981;SDS011;57319;56.274;43.980;2022-12-18T03:27:06;11.88;;;6.75;;
69981;SDS011;57319;56.274;43.980;2022-12-18T03:29:44;15.75;;;8.23;;
69981;SDS011;57319;56.274;43.980;2022-12-18T03:32:21;12.23;;;6.57;;
69981;SDS011;57319;56.274;43.980;2022-12-18T03:34:51;11.07;;;7.18;;
69981;SDS011;57319;56.274;43.980;2022-12-18T03:37:22;13.13;;;6.93;;
69981;SDS011;57319;56.274;43.980;2022-12-18T03:39:48;15.38;;;8.38;;
69981;SDS011;57319;56.274;43.980;2022-12-18T03:42:25;13.13;;;7.22;;
69981;SDS011;57319;56.274;43.980;2022-12-18T03:45:19;13.35;;;7.18;;
69981;SDS011;57319;56.274;43.980;2022-12-18T03:48:07;10.43;;;5.45;;
69981;SDS011;57319;56.274;43.980;2022-12-18T03:50:59;14.02;;;7.15;;
69981;SDS011;57319;56.274;43.980;2022-12-18T03:53:52;10.07;;;6.65;;
69981;SDS011;57319;56.274;43.980;2022-12-18T03:56:23;10.38;;;6.53;;
69981;SDS011;57319;56.274;43.980;2022-12-18T03:58:52;9.23;;;5.47;;
69981;SDS011;57319;56.274;43.980;2022-12-18T04:01:20;10.07;;;5.88;;
69981;SDS011;57319;56.274;43.980;2022-12-18T04:03:51;7.63;;;5.90;;
69981;SDS011;57319;56.274;43.980;2022-12-18T04:06:18;11.63;;;7.68;;
69981;SDS011;57319;56.274;43.980;2022-12-18T04:08:44;14.77;;;7.30;;
69981;SDS011;57319;56.274;43.980;2022-12-18T04:11:10;17.13;;;7.72;;
69981;SDS011;57319;56.274;43.980;2022-12-18T04:13:37;9.90;;;6.60;;
69981;SDS011;57319;56.274;43.980;2022-12-18T04:16:03;13.85;;;6.78;;
69981;SDS011;57319;56.274;43.980;2022-12-18T04:18:29;13.70;;;7.35;;
69981;SDS011;57319;56.274;43.980;2022-12-18T04:20:55;13.68;;;6.75;;
69981;SDS011;57319;56.274;43.980;2022-12-18T04:23:21;12.95;;;6.90;;
69981;SDS011;57319;56.274;43.980;2022-12-18T04:25:47;9.50;;;6.13;;
69981;SDS011;57319;56.274;43.980;2022-12-18T04:28:12;14.40;;;7.53;;
69981;SDS011;57319;56.274;43.980;2022-12-18T04:30:38;11.48;;;6.63;;
69981;SDS011;57319;56.274;43.980;2022-12-18T04:33:07;11.40;;;6.40;;
69981;SDS011;57319;56.274;43.980;2022-12-18T04:35:34;11.98;;;6.97;;
69981;SDS011;57319;56.274;43.980;2022-12-18T04:37:59;13.50;;;7.32;;
69981;SDS011;57319;56.274;43.980;2022-12-18T04:40:25;17.27;;;8.55;;
69981;SDS011;57319;56.274;43.980;2022-12-18T04:42:50;15.65;;;8.65;;
69981;SDS011;57319;56.274;43.980;2022-12-18T04:45:16;16.90;;;8.10;;
69981;SDS011;57319;56.274;43.980;2022-12-18T04:47:42;12.27;;;7.10;;
69981;SDS011;57319;56.274;43.980;2022-12-18T04:50:08;13.68;;;7.80;;
69981;SDS011;57319;56.274;43.980;2022-12-18T04:52:33;13.02;;;7.18;;
69981;SDS011;57319;56.274;43.980;2022-12-18T04:54:59;12.63;;;7.50;;
69981;SDS011;57319;56.274;43.980;2022-12-18T04:57:24;13.88;;;7.43;;
69981;SDS011;57319;56.274;43.980;2022-12-18T04:59:51;13.07;;;7.63;;
69981;SDS011;57319;56.274;43.980;2022-12-18T05:02:16;13.63;;;6.78;;
69981;SDS011;57319;56.274;43.980;2022-12-18T05:04:42;19.92;;;9.40;;
69981;SDS011;57319;56.274;43.980;2022-12-18T05:07:07;22.02;;;10.65;;
69981;SDS011;57319;56.274;43.980;2022-12-18T05:09:33;14.63;;;7.97;;
69981;SDS011;57319;56.274;43.980;2022-12-18T05:11:59;17.13;;;8.82;;
69981;SDS011;57319;56.274;43.980;2022-12-18T05:14:24;12.52;;;7.63;;
69981;SDS011;57319;56.274;43.980;2022-12-18T05:16:50;13.73;;;8.05;;
69981;SDS011;57319;56.274;43.980;2022-12-18T05:19:15;12.65;;;7.38;;
69981;SDS011;57319;56.274;43.980;2022-12-18T05:21:41;17.13;;;8.02;;
69981;SDS011;57319;56.274;43.980;2022-12-18T05:24:07;11.30;;;7.28;;
69981;SDS011;57319;56.274;43.980;2022-12-18T05:26:32;14.27;;;7.72;;
69981;SDS011;57319;56.274;43.980;2022-12-18T05:28:58;12.23;;;7.90;;
69981;SDS011;57319;56.274;43.980;2022-12-18T05:31:23;14.45;;;7.72;;
69981;SDS011;57319;56.274;43.980;2022-12-18T05:33:49;12.80;;;8.30;;
69981;SDS011;57319;56.274;43.980;2022-12-18T05:36:15;13.15;;;8.35;;
69981;SDS011;57319;56.274;43.980;2022-12-18T05:38:40;13.52;;;7.88;;
69981;SDS011;57319;56.274;43.980;2022-12-18T05:41:06;13.57;;;7.72;;
69981;SDS011;57319;56.274;43.980;2022-12-18T05:43:33;12.35;;;7.45;;
69981;SDS011;57319;56.274;43.980;2022-12-18T05:46:07;14.75;;;8.57;;
69981;SDS011;57319;56.274;43.980;2022-12-18T05:48:34;9.05;;;7.28;;
69981;SDS011;57319;56.274;43.980;2022-12-18T05:51:04;12.38;;;7.25;;
69981;SDS011;57319;56.274;43.980;2022-12-18T05:53:32;14.45;;;7.50;;
69981;SDS011;57319;56.274;43.980;2022-12-18T05:55:59;9.93;;;6.90;;
69981;SDS011;57319;56.274;43.980;2022-12-18T05:58:26;10.13;;;6.82;;
69981;SDS011;57319;56.274;43.980;2022-12-18T06:00:52;11.00;;;7.03;;
69981;SDS011;57319;56.274;43.980;2022-12-18T06:03:18;11.52;;;7.22;;
69981;SDS011;57319;56.274;43.980;2022-12-18T06:05:44;11.20;;;6.30;;
69981;SDS011;57319;56.274;43.980;2022-12-18T06:08:11;10.13;;;6.60;;
69981;SDS011;57319;56.274;43.980;2022-12-18T06:10:37;13.07;;;7.57;;
69981;SDS011;57319;56.274;43.980;2022-12-18T06:13:03;10.38;;;7.00;;
69981;SDS011;57319;56.274;43.980;2022-12-18T06:15:29;11.45;;;6.15;;
69981;SDS011;57319;56.274;43.980;2022-12-18T06:17:55;13.60;;;6.75;;
69981;SDS011;57319;56.274;43.980;2022-12-18T06:20:21;13.38;;;7.22;;
69981;SDS011;57319;56.274;43.980;2022-12-18T06:22:47;11.55;;;7.72;;
69981;SDS011;57319;56.274;43.980;2022-12-18T06:25:12;8.32;;;6.68;;
69981;SDS011;57319;56.274;43.980;2022-12-18T06:27:39;10.95;;;7.38;;
69981;SDS011;57319;56.274;43.980;2022-12-18T06:30:05;11.18;;;6.13;;
69981;SDS011;57319;56.274;43.980;2022-12-18T06:32:32;9.93;;;6.88;;
69981;SDS011;57319;56.274;43.980;2022-12-18T06:34:58;14.05;;;6.65;;
69981;SDS011;57319;56.274;43.980;2022-12-18T06:37:23;10.27;;;7.00;;
69981;SDS011;57319;56.274;43.980;2022-12-18T06:39:51;8.50;;;6.25;;
69981;SDS011;57319;56.274;43.980;2022-12-18T06:42:17;11.85;;;7.07;;
69981;SDS011;57319;56.274;43.980;2022-12-18T06:44:43;10.95;;;6.38;;
69981;SDS011;57319;56.274;43.980;2022-12-18T06:47:09;10.27;;;7.10;;
69981;SDS011;57319;56.274;43.980;2022-12-18T06:49:34;8.68;;;6.63;;
69981;SDS011;57319;56.274;43.980;2022-12-18T06:52:00;14.52;;;7.20;;
69981;SDS011;57319;56.274;43.980;2022-12-18T06:54:25;11.00;;;6.47;;
69981;SDS011;57319;56.274;43.980;2022-12-18T06:56:51;9.85;;;6.00;;
69981;SDS011;57319;56.274;43.980;2022-12-18T06:59:17;9.32;;;5.72;;
69981;SDS011;57319;56.274;43.980;2022-12-18T07:01:42;12.20;;;6.78;;
69981;SDS011;57319;56.274;43.980;2022-12-18T07:04:08;9.95;;;6.88;;
69981;SDS011;57319;56.274;43.980;2022-12-18T07:06:34;9.82;;;6.50;;
69981;SDS011;57319;56.274;43.980;2022-12-18T07:08:59;12.52;;;7.20;;
69981;SDS011;57319;56.274;43.980;2022-12-18T07:11:25;14.02;;;7.40;;
69981;SDS011;57319;56.274;43.980;2022-12-18T07:13:51;11.18;;;6.82;;
69981;SDS011;57319;56.274;43.980;2022-12-18T07:16:18;17.48;;;7.57;;
69981;SDS011;57319;56.274;43.980;2022-12-18T07:18:45;13.35;;;7.38;;
69981;SDS011;57319;56.274;43.980;2022-12-18T07:21:12;16.30;;;7.85;;
69981;SDS011;57319;56.274;43.980;2022-12-18T07:23:40;10.57;;;6.72;;
69981;SDS011;57319;56.274;43.980;2022-12-18T07:26:09;11.82;;;7.40;;
69981;SDS011;57319;56.274;43.980;2022-12-18T07:28:37;13.77;;;7.93;;
69981;SDS011;57319;56.274;43.980;2022-12-18T07:31:05;14.65;;;7.85;;
69981;SDS011;57319;56.274;43.980;2022-12-18T07:33:35;11.18;;;7.60;;
69981;SDS011;57319;56.274;43.980;2022-12-18T07:36:01;11.23;;;7.32;;
69981;SDS011;57319;56.274;43.980;2022-12-18T07:38:28;11.57;;;6.70;;
69981;SDS011;57319;56.274;43.980;2022-12-18T07:40:54;11.88;;;7.88;;
69981;SDS011;57319;56.274;43.980;2022-12-18T07:43:25;12.50;;;7.43;;
69981;SDS011;57319;56.274;43.980;2022-12-18T07:45:50;14.88;;;7.50;;
69981;SDS011;57319;56.274;43.980;2022-12-18T07:48:16;18.02;;;8.43;;
69981;SDS011;57319;56.274;43.980;2022-12-18T07:50:41;13.65;;;7.75;;
69981;SDS011;57319;56.274;43.980;2022-12-18T07:53:07;13.38;;;7.07;;
69981;SDS011;57319;56.274;43.980;2022-12-18T07:55:33;9.32;;;6.88;;
69981;SDS011;57319;56.274;43.980;2022-12-18T07:58:02;13.43;;;7.57;;
69981;SDS011;57319;56.274;43.980;2022-12-18T08:00:28;11.77;;;7.60;;
69981;SDS011;57319;56.274;43.980;2022-12-18T08:02:54;16.10;;;7.88;;
69981;SDS011;57319;56.274;43.980;2022-12-18T08:05:20;12.95;;;7.88;;
69981;SDS011;57319;56.274;43.980;2022-12-18T08:07:46;13.73;;;7.93;;
69981;SDS011;57319;56.274;43.980;2022-12-18T08:10:12;14.63;;;8.05;;
69981;SDS011;57319;56.274;43.980;2022-12-18T08:12:38;14.73;;;8.20;;
69981;SDS011;57319;56.274;43.980;2022-12-18T08:15:04;26.25;;;11.10;;
69981;SDS011;57319;56.274;43.980;2022-12-18T08:17:31;38.50;;;12.80;;
69981;SDS011;57319;56.274;43.980;2022-12-18T08:19:57;25.60;;;11.70;;
69981;SDS011;57319;56.274;43.980;2022-12-18T08:22:22;20.98;;;9.68;;
69981;SDS011;57319;56.274;43.980;2022-12-18T08:24:48;19.50;;;9.95;;
69981;SDS011;57319;56.274;43.980;2022-12-18T08:27:13;14.57;;;9.00;;
69981;SDS011;57319;56.274;43.980;2022-12-18T08:29:39;20.98;;;9.15;;
69981;SDS011;57319;56.274;43.980;2022-12-18T08:32:05;15.50;;;8.35;;
69981;SDS011;57319;56.274;43.980;2022-12-18T08:34:30;18.30;;;10.10;;
69981;SDS011;57319;56.274;43.980;2022-12-18T08:36:56;10.80;;;7.90;;
69981;SDS011;57319;56.274;43.980;2022-12-18T08:39:22;11.38;;;8.20;;
69981;SDS011;57319;56.274;43.980;2022-12-18T08:41:47;14.85;;;8.02;;
69981;SDS011;57319;56.274;43.980;2022-12-18T08:44:33;13.57;;;7.20;;
69981;SDS011;57319;56.274;43.980;2022-12-18T08:47:05;13.23;;;7.60;;
69981;SDS011;57319;56.274;43.980;2022-12-18T08:49:31;15.13;;;7.72;;
69981;SDS011;57319;56.274;43.980;2022-12-18T08:51:57;10.38;;;7.75;;
69981;SDS011;57319;56.274;43.980;2022-12-18T08:54:23;11.10;;;7.22;;
69981;SDS011;57319;56.274;43.980;2022-12-18T08:56:49;12.63;;;8.55;;
69981;SDS011;57319;56.274;43.980;2022-12-18T08:59:16;12.55;;;7.60;;
69981;SDS011;57319;56.274;43.980;2022-12-18T09:01:41;12.88;;;7.95;;
69981;SDS011;57319;56.274;43.980;2022-12-18T09:04:08;13.48;;;8.30;;
69981;SDS011;57319;56.274;43.980;2022-12-18T09:06:34;17.02;;;9.05;;
69981;SDS011;57319;56.274;43.980;2022-12-18T09:09:00;14.30;;;8.80;;
69981;SDS011;57319;56.274;43.980;2022-12-18T09:11:26;11.77;;;8.07;;
69981;SDS011;57319;56.274;43.980;2022-12-18T09:13:53;14.38;;;7.85;;
69981;SDS011;57319;56.274;43.980;2022-12-18T09:16:20;15.15;;;9.15;;
69981;SDS011;57319;56.274;43.980;2022-12-18T09:18:47;15.63;;;8.70;;
69981;SDS011;57319;56.274;43.980;2022-12-18T09:21:14;14.15;;;8.88;;
69981;SDS011;57319;56.274;43.980;2022-12-18T09:23:42;16.60;;;9.13;;
69981;SDS011;57319;56.274;43.980;2022-12-18T09:26:08;13.20;;;8.23;;
69981;SDS011;57319;56.274;43.980;2022-12-18T09:28:33;15.82;;;8.52;;
69981;SDS011;57319;56.274;43.980;2022-12-18T09:31:03;13.98;;;9.27;;
69981;SDS011;57319;56.274;43.980;2022-12-18T09:33:30;16.13;;;9.95;;
69981;SDS011;57319;56.274;43.980;2022-12-18T09:35:56;15.07;;;10.00;;
69981;SDS011;57319;56.274;43.980;2022-12-18T09:38:21;15.27;;;9.15;;
69981;SDS011;57319;56.274;43.980;2022-12-18T09:40:49;12.75;;;9.07;;
69981;SDS011;57319;56.274;43.980;2022-12-18T09:45:56;22.77;;;9.48;;
69981;SDS011;57319;56.274;43.980;2022-12-18T09:48:31;14.07;;;7.97;;
69981;SDS011;57319;56.274;43.980;2022-12-18T09:54:01;15.05;;;8.20;;
69981;SDS011;57319;56.274;43.980;2022-12-18T09:56:31;15.30;;;8.10;;
69981;SDS011;57319;56.274;43.980;2022-12-18T09:59:03;13.00;;;7.97;;
69981;SDS011;57319;56.274;43.980;2022-12-18T10:01:31;16.25;;;8.90;;
69981;SDS011;57319;56.274;43.980;2022-12-18T10:03:57;12.15;;;8.23;;
69981;SDS011;57319;56.274;43.980;2022-12-18T10:06:32;14.32;;;8.45;;
69981;SDS011;57319;56.274;43.980;2022-12-18T10:09:15;14.32;;;8.88;;
69981;SDS011;57319;56.274;43.980;2022-12-18T10:14:40;16.52;;;9.80;;
69981;SDS011;57319;56.274;43.980;2022-12-18T10:19:42;17.30;;;9.90;;
69981;SDS011;57319;56.274;43.980;2022-12-18T10:27:47;13.05;;;7.40;;
69981;SDS011;57319;56.274;43.980;2022-12-18T10:30:17;15.25;;;9.20;;
69981;SDS011;57319;56.274;43.980;2022-12-18T10:32:44;13.68;;;8.00;;
69981;SDS011;57319;56.274;43.980;2022-12-18T10:35:24;19.15;;;9.13;;
69981;SDS011;57319;56.274;43.980;2022-12-18T10:38:00;13.10;;;8.27;;
69981;SDS011;57319;56.274;43.980;2022-12-18T10:40:26;20.98;;;9.80;;
69981;SDS011;57319;56.274;43.980;2022-12-18T10:43:12;17.25;;;8.30;;
69981;SDS011;57319;56.274;43.980;2022-12-18T10:45:39;12.95;;;7.90;;
69981;SDS011;57319;56.274;43.980;2022-12-18T10:48:27;20.08;;;8.55;;
69981;SDS011;57319;56.274;43.980;2022-12-18T10:50:52;17.65;;;8.93;;
69981;SDS011;57319;56.274;43.980;2022-12-18T10:53:20;16.85;;;8.95;;
69981;SDS011;57319;56.274;43.980;2022-12-18T10:55:49;15.32;;;9.05;;
69981;SDS011;57319;56.274;43.980;2022-12-18T10:58:24;16.15;;;8.48;;
69981;SDS011;57319;56.274;43.980;2022-12-18T11:03:35;16.90;;;9.23;;
69981;SDS011;57319;56.274;43.980;2022-12-18T11:06:05;16.25;;;8.32;;
69981;SDS011;57319;56.274;43.980;2022-12-18T11:08:34;16.60;;;8.27;;
69981;SDS011;57319;56.274;43.980;2022-12-18T11:11:00;14.63;;;8.02;;
69981;SDS011;57319;56.274;43.980;2022-12-18T11:13:27;15.82;;;8.82;;
69981;SDS011;57319;56.274;43.980;2022-12-18T11:15:55;16.00;;;8.48;;
69981;SDS011;57319;56.274;43.980;2022-12-18T11:23:35;21.30;;;10.77;;
69981;SDS011;57319;56.274;43.980;2022-12-18T11:26:03;16.65;;;8.15;;
69981;SDS011;57319;56.274;43.980;2022-12-18T11:33:41;14.27;;;8.25;;
69981;SDS011;57319;56.274;43.980;2022-12-18T11:36:11;14.93;;;8.30;;
69981;SDS011;57319;56.274;43.980;2022-12-18T11:38:39;15.43;;;7.82;;
69981;SDS011;57319;56.274;43.980;2022-12-18T11:41:13;17.00;;;7.95;;
69981;SDS011;57319;56.274;43.980;2022-12-18T11:43:50;15.20;;;7.50;;
69981;SDS011;57319;56.274;43.980;2022-12-18T11:46:36;12.52;;;8.07;;
69981;SDS011;57319;56.274;43.980;2022-12-18T11:49:20;13.77;;;7.80;;
69981;SDS011;57319;56.274;43.980;2022-12-18T11:51:53;14.57;;;6.80;;
69981;SDS011;57319;56.274;43.980;2022-12-18T11:54:26;14.35;;;7.07;;
69981;SDS011;57319;56.274;43.980;2022-12-18T11:56:56;13.88;;;7.30;;
69981;SDS011;57319;56.274;43.980;2022-12-18T12:21:25;13.60;;;6.50;;
69981;SDS011;57319;56.274;43.980;2022-12-18T12:29:45;9.57;;;5.72;;
69981;SDS011;57319;56.274;43.980;2022-12-18T12:40:17;12.43;;;7.32;;
69981;SDS011;57319;56.274;43.980;2022-12-18T12:42:49;15.43;;;7.07;;
69981;SDS011;57319;56.274;43.980;2022-12-18T12:48:14;9.63;;;6.65;;
69981;SDS011;57319;56.274;43.980;2022-12-18T12:50:46;8.45;;;6.53;;
69981;SDS011;57319;56.274;43.980;2022-12-18T12:53:17;11.30;;;7.18;;
69981;SDS011;57319;56.274;43.980;2022-12-18T12:55:51;10.07;;;6.47;;
69981;SDS011;57319;56.274;43.980;2022-12-18T12:58:23;10.88;;;6.38;;
69981;SDS011;57319;56.274;43.980;2022-12-18T13:06:48;7.78;;;5.57;;
69981;SDS011;57319;56.274;43.980;2022-12-18T13:09:24;13.73;;;7.05;;
69981;SDS011;57319;56.274;43.980;2022-12-18T13:11:50;10.68;;;6.05;;
69981;SDS011;57319;56.274;43.980;2022-12-18T13:14:37;12.68;;;6.45;;
69981;SDS011;57319;56.274;43.980;2022-12-18T13:19:49;7.45;;;5.22;;
69981;SDS011;57319;56.274;43.980;2022-12-18T13:22:23;9.30;;;5.65;;
69981;SDS011;57319;56.274;43.980;2022-12-18T13:24:53;7.85;;;6.22;;
69981;SDS011;57319;56.274;43.980;2022-12-18T13:35:40;6.72;;;5.28;;
69981;SDS011;57319;56.274;43.980;2022-12-18T13:38:22;11.63;;;5.85;;
69981;SDS011;57319;56.274;43.980;2022-12-18T13:40:58;8.10;;;5.97;;
69981;SDS011;57319;56.274;43.980;2022-12-18T13:43:39;15.98;;;5.80;;
69981;SDS011;57319;56.274;43.980;2022-12-18T13:46:21;10.32;;;6.38;;
69981;SDS011;57319;56.274;43.980;2022-12-18T13:49:20;9.88;;;6.35;;
69981;SDS011;57319;56.274;43.980;2022-12-18T13:51:52;10.40;;;5.95;;
69981;SDS011;57319;56.274;43.980;2022-12-18T14:00:28;13.00;;;5.35;;
69981;SDS011;57319;56.274;43.980;2022-12-18T14:02:55;13.02;;;5.72;;
69981;SDS011;57319;56.274;43.980;2022-12-18T14:05:25;7.55;;;5.65;;
69981;SDS011;57319;56.274;43.980;2022-12-18T14:07:51;8.35;;;5.50;;
69981;SDS011;57319;56.274;43.980;2022-12-18T14:10:18;13.55;;;6.20;;
69981;SDS011;57319;56.274;43.980;2022-12-18T14:12:49;9.25;;;5.70;;
69981;SDS011;57319;56.274;43.980;2022-12-18T14:17:50;7.95;;;5.32;;
69981;SDS011;57319;56.274;43.980;2022-12-18T14:20:20;8.43;;;5.18;;
69981;SDS011;57319;56.274;43.980;2022-12-18T14:22:47;8.88;;;5.55;;
69981;SDS011;57319;56.274;43.980;2022-12-18T14:25:18;9.73;;;5.20;;
69981;SDS011;57319;56.274;43.980;2022-12-18T14:27:47;7.75;;;5.80;;
69981;SDS011;57319;56.274;43.980;2022-12-18T14:35:30;11.25;;;6.20;;
69981;SDS011;57319;56.274;43.980;2022-12-18T14:38:39;9.43;;;5.82;;
69981;SDS011;57319;56.274;43.980;2022-12-18T14:41:03;8.23;;;5.80;;
69981;SDS011;57319;56.274;43.980;2022-12-18T14:43:34;8.30;;;5.60;;
69981;SDS011;57319;56.274;43.980;2022-12-18T14:46:02;9.88;;;5.50;;
69981;SDS011;57319;56.274;43.980;2022-12-18T14:48:37;8.45;;;5.60;;
69981;SDS011;57319;56.274;43.980;2022-12-18T14:51:04;8.32;;;5.75;;
69981;SDS011;57319;56.274;43.980;2022-12-18T14:56:03;15.23;;;6.47;;
69981;SDS011;57319;56.274;43.980;2022-12-18T14:58:43;8.68;;;5.80;;
69981;SDS011;57319;56.274;43.980;2022-12-18T15:01:17;11.35;;;6.22;;
69981;SDS011;57319;56.274;43.980;2022-12-18T15:03:48;10.90;;;6.32;;
69981;SDS011;57319;56.274;43.980;2022-12-18T15:06:55;7.47;;;5.63;;
69981;SDS011;57319;56.274;43.980;2022-12-18T15:09:24;9.75;;;6.78;;
69981;SDS011;57319;56.274;43.980;2022-12-18T15:11:55;8.15;;;5.95;;
69981;SDS011;57319;56.274;43.980;2022-12-18T15:14:33;11.73;;;6.32;;
69981;SDS011;57319;56.274;43.980;2022-12-18T15:17:03;7.53;;;6.13;;
69981;SDS011;57319;56.274;43.980;2022-12-18T15:19:40;11.32;;;6.75;;
69981;SDS011;57319;56.274;43.980;2022-12-18T15:22:26;9.98;;;6.38;;
69981;SDS011;57319;56.274;43.980;2022-12-18T15:24:54;10.18;;;6.65;;
69981;SDS011;57319;56.274;43.980;2022-12-18T15:27:23;6.90;;;5.38;;
69981;SDS011;57319;56.274;43.980;2022-12-18T15:32:33;17.92;;;7.75;;
69981;SDS011;57319;56.274;43.980;2022-12-18T15:35:41;10.00;;;7.22;;
69981;SDS011;57319;56.274;43.980;2022-12-18T15:37:49;12.35;;;7.10;;
69981;SDS011;57319;56.274;43.980;2022-12-18T15:40:18;12.13;;;6.28;;
69981;SDS011;57319;56.274;43.980;2022-12-18T15:42:46;11.65;;;6.53;;
69981;SDS011;57319;56.274;43.980;2022-12-18T15:45:31;11.73;;;7.03;;
69981;SDS011;57319;56.274;43.980;2022-12-18T15:47:57;13.80;;;6.75;;
69981;SDS011;57319;56.274;43.980;2022-12-18T15:50:23;12.38;;;7.07;;
69981;SDS011;57319;56.274;43.980;2022-12-18T15:52:50;9.38;;;6.22;;
69981;SDS011;57319;56.274;43.980;2022-12-18T15:55:21;9.85;;;4.95;;
69981;SDS011;57319;56.274;43.980;2022-12-18T15:58:08;12.57;;;6.93;;
69981;SDS011;57319;56.274;43.980;2022-12-18T16:00:35;9.23;;;6.32;;
69981;SDS011;57319;56.274;43.980;2022-12-18T16:03:06;7.68;;;4.82;;
69981;SDS011;57319;56.274;43.980;2022-12-18T16:05:31;10.88;;;6.35;;
69981;SDS011;57319;56.274;43.980;2022-12-18T16:08:00;9.40;;;5.40;;
69981;SDS011;57319;56.274;43.980;2022-12-18T16:10:25;7.50;;;5.35;;
69981;SDS011;57319;56.274;43.980;2022-12-18T16:12:51;10.40;;;6.50;;
69981;SDS011;57319;56.274;43.980;2022-12-18T16:15:17;10.18;;;6.07;;
69981;SDS011;57319;56.274;43.980;2022-12-18T16:17:43;8.32;;;5.82;;
69981;SDS011;57319;56.274;43.980;2022-12-18T16:20:16;9.38;;;6.13;;
69981;SDS011;57319;56.274;43.980;2022-12-18T16:22:43;10.93;;;5.60;;
69981;SDS011;57319;56.274;43.980;2022-12-18T16:25:24;11.55;;;6.45;;
69981;SDS011;57319;56.274;43.980;2022-12-18T16:27:53;9.00;;;5.82;;
69981;SDS011;57319;56.274;43.980;2022-12-18T16:30:22;7.75;;;5.55;;
69981;SDS011;57319;56.274;43.980;2022-12-18T16:32:51;11.52;;;6.05;;
69981;SDS011;57319;56.274;43.980;2022-12-18T16:35:17;7.45;;;5.72;;